createdAt,value
2017-11-12T00:01:30.002Z,82.10
2017-11-12T00:03:57.628Z,81.60
2017-11-12T00:06:25.271Z,80.50
2017-11-12T00:08:52.902Z,80.60
2017-11-12T00:11:20.552Z,81.20
2017-11-12T00:13:48.171Z,81.20
2017-11-12T00:16:15.776Z,80.10
2017-11-12T00:18:43.418Z,80.00
2017-11-12T00:21:11.028Z,80.90
2017-11-12T00:23:39.432Z,81.70
2017-11-12T00:26:07.081Z,82.50
2017-11-12T00:28:34.735Z,82.10
2017-11-12T00:31:02.349Z,82.20
2017-11-12T00:33:29.968Z,81.90
2017-11-12T00:35:58.383Z,80.80
2017-11-12T00:38:25.995Z,80.60
2017-11-12T00:40:53.643Z,81.90
2017-11-12T00:43:21.263Z,81.00
2017-11-12T00:45:48.908Z,80.90
2017-11-12T00:48:16.561Z,81.60
2017-11-12T00:50:44.942Z,82.50
2017-11-12T00:53:12.584Z,82.40
2017-11-12T00:55:40.992Z,81.10
2017-11-12T00:58:08.641Z,81.00
2017-11-12T01:00:36.276Z,81.80
2017-11-12T01:03:03.929Z,81.70
2017-11-12T01:05:31.667Z,81.60
2017-11-12T01:07:59.278Z,81.40
2017-11-12T01:10:27.696Z,81.40
2017-11-12T01:12:55.328Z,81.40
2017-11-12T01:15:22.992Z,81.50
2017-11-12T01:17:50.610Z,82.30
2017-11-12T01:20:18.260Z,82.40
2017-11-12T01:22:45.874Z,81.80
2017-11-12T01:25:14.258Z,83.30
2017-11-12T01:27:41.922Z,83.30
2017-11-12T01:30:09.544Z,82.40
2017-11-12T01:32:37.187Z,83.10
2017-11-12T01:35:04.799Z,82.80
2017-11-12T01:37:32.452Z,82.30
2017-11-12T01:40:00.096Z,83.00
2017-11-12T01:42:27.744Z,81.60
2017-11-12T01:44:55.366Z,82.60
2017-11-12T01:47:22.989Z,83.20
2017-11-12T01:49:50.691Z,82.10
2017-11-12T01:52:18.310Z,83.10
2017-11-12T01:54:45.956Z,83.30
2017-11-12T01:57:13.575Z,83.70
2017-11-12T01:59:41.228Z,83.60
2017-11-12T02:02:08.844Z,82.60
2017-11-12T02:04:36.461Z,82.30
2017-11-12T02:07:04.122Z,83.20
2017-11-12T02:09:32.504Z,83.10
2017-11-12T02:12:00.169Z,83.10
2017-11-12T02:14:27.784Z,83.80
2017-11-12T02:16:56.199Z,82.90
2017-11-12T02:19:23.816Z,82.90
2017-11-12T02:21:51.427Z,83.10
2017-11-12T02:24:19.063Z,82.80
2017-11-12T02:26:46.675Z,83.20
2017-11-12T02:29:14.636Z,82.30
2017-11-12T02:31:42.254Z,81.90
2017-11-12T02:34:09.899Z,82.00
2017-11-12T02:36:37.527Z,82.50
2017-11-12T02:39:05.145Z,82.80
2017-11-12T02:41:32.809Z,82.70
2017-11-12T02:44:01.188Z,82.40
2017-11-12T02:46:28.845Z,82.40
2017-11-12T02:48:56.459Z,82.90
2017-11-12T02:51:24.075Z,81.40
2017-11-12T02:53:51.724Z,80.80
2017-11-12T02:56:19.334Z,80.60
2017-11-12T02:58:46.983Z,81.00
2017-11-12T03:01:14.600Z,81.30
2017-11-12T03:03:42.992Z,82.00
2017-11-12T03:06:10.644Z,82.00
2017-11-12T03:08:38.266Z,81.00
2017-11-12T03:11:06.676Z,80.60
2017-11-12T03:13:34.288Z,80.60
2017-11-12T03:16:01.899Z,81.40
2017-11-12T03:18:29.545Z,80.70
2017-11-12T03:20:57.163Z,81.00
2017-11-12T03:23:24.823Z,79.80
2017-11-12T03:25:52.443Z,80.60
2017-11-12T03:28:20.060Z,80.30
2017-11-12T03:30:47.721Z,80.60
2017-11-12T03:33:15.341Z,80.90
2017-11-12T03:35:43.763Z,79.60
2017-11-12T03:38:11.381Z,79.40
2017-11-12T03:40:38.993Z,79.90
2017-11-12T03:43:07.405Z,80.60
2017-11-12T03:45:35.040Z,80.50
2017-11-12T03:48:02.693Z,79.70
2017-11-12T03:50:30.320Z,79.40
2017-11-12T03:52:57.936Z,79.50
2017-11-12T03:55:26.396Z,79.40
2017-11-12T03:57:54.014Z,79.90
2017-11-12T04:00:21.677Z,80.70
2017-11-12T04:02:49.300Z,81.30
2017-11-12T04:05:16.957Z,79.70
2017-11-12T04:07:44.569Z,79.80
2017-11-12T04:10:12.194Z,80.00
2017-11-12T04:12:40.600Z,79.10
2017-11-12T04:15:08.215Z,79.10
2017-11-12T04:17:35.862Z,79.20
2017-11-12T04:20:03.529Z,79.70
2017-11-12T04:22:31.185Z,80.00
2017-11-12T04:24:58.795Z,80.00
2017-11-12T04:27:26.421Z,80.00
2017-11-12T04:29:54.060Z,80.50
2017-11-12T04:32:21.675Z,80.60
2017-11-12T04:34:49.317Z,80.60
2017-11-12T04:37:16.933Z,80.40
2017-11-12T04:39:44.576Z,79.70
2017-11-12T04:42:12.192Z,80.10
2017-11-12T04:44:39.810Z,80.30
2017-11-12T04:47:07.475Z,80.20
2017-11-12T04:49:35.084Z,80.00
2017-11-12T04:52:02.731Z,80.20
2017-11-12T04:54:30.351Z,80.00
2017-11-12T04:56:58.011Z,80.60
2017-11-12T04:59:25.641Z,80.50
2017-11-12T05:01:54.045Z,80.00
2017-11-12T05:04:21.698Z,80.00
2017-11-12T05:06:49.315Z,80.80
2017-11-12T05:09:16.959Z,80.90
2017-11-12T05:11:44.568Z,80.60
2017-11-12T05:14:12.215Z,80.80
2017-11-12T05:16:39.832Z,81.00
2017-11-12T05:19:07.449Z,81.40
2017-11-12T05:21:35.104Z,81.80
2017-11-12T05:24:02.726Z,81.90
2017-11-12T05:26:30.385Z,82.10
2017-11-12T05:28:57.996Z,82.10
2017-11-12T05:31:26.411Z,83.30
2017-11-12T05:33:54.031Z,82.70
2017-11-12T05:36:21.645Z,82.40
2017-11-12T05:38:49.301Z,82.40
2017-11-12T05:41:17.701Z,82.70
2017-11-12T05:43:45.344Z,82.70
2017-11-12T05:46:12.976Z,82.70
2017-11-12T05:48:40.632Z,82.60
2017-11-12T05:51:08.249Z,82.50
2017-11-12T05:53:36.641Z,83.90
2017-11-12T05:56:04.292Z,83.20
2017-11-12T05:58:31.935Z,84.10
2017-11-12T06:00:59.574Z,83.70
2017-11-12T06:03:27.191Z,84.10
2017-11-12T06:05:54.837Z,84.40
2017-11-12T06:08:22.474Z,85.50
2017-11-12T06:10:50.104Z,86.00
2017-11-12T06:13:17.755Z,86.50
2017-11-12T06:15:45.371Z,86.20
2017-11-12T06:18:13.012Z,85.60
2017-11-12T06:20:40.622Z,86.20
2017-11-12T06:23:09.031Z,87.10
2017-11-12T06:25:36.652Z,86.70
2017-11-12T06:28:04.374Z,87.20
2017-11-12T06:30:32.016Z,88.00
2017-11-12T06:32:59.639Z,88.70
2017-11-12T06:35:27.283Z,89.70
2017-11-12T06:37:54.898Z,90.10
2017-11-12T06:40:22.539Z,89.90
2017-11-12T06:42:50.156Z,90.30
2017-11-12T06:45:18.124Z,90.40
2017-11-12T06:47:46.538Z,89.50
2017-11-12T06:50:14.147Z,89.40
2017-11-12T06:52:41.832Z,88.90
2017-11-12T06:55:09.466Z,88.40
2017-11-12T06:57:37.115Z,87.70
2017-11-12T07:00:04.803Z,87.50
2017-11-12T07:02:32.621Z,87.40
2017-11-12T07:05:00.268Z,87.20
2017-11-12T07:07:27.886Z,86.20
2017-11-12T07:09:55.538Z,85.60
2017-11-12T07:12:23.156Z,86.50
2017-11-12T07:14:51.764Z,86.00
2017-11-12T07:17:19.381Z,85.90
2017-11-12T07:19:47.825Z,84.40
2017-11-12T07:22:16.280Z,82.90
2017-11-12T07:24:43.883Z,82.90
2017-11-12T07:27:11.608Z,82.30
2017-11-12T07:29:39.223Z,80.60
2017-11-12T07:32:06.880Z,80.60
2017-11-12T07:34:35.473Z,80.40
2017-11-12T07:37:03.691Z,79.70
2017-11-12T07:39:31.392Z,80.20
2017-11-12T07:42:00.064Z,79.00
2017-11-12T07:44:28.340Z,78.90
2017-11-12T07:46:55.967Z,78.40
2017-11-12T07:49:23.644Z,77.20
2017-11-12T07:51:51.295Z,77.70
2017-11-12T07:54:18.946Z,75.20
2017-11-12T07:56:46.599Z,74.70
2017-11-12T07:59:14.226Z,73.90
2017-11-12T08:01:41.890Z,74.60
2017-11-12T08:04:09.526Z,74.10
2017-11-12T08:06:37.227Z,74.10
2017-11-12T08:09:04.862Z,72.50
2017-11-12T08:11:32.544Z,74.20
2017-11-12T08:14:00.198Z,73.30
2017-11-12T08:16:27.969Z,72.80
2017-11-12T08:18:55.651Z,71.90
2017-11-12T08:21:24.032Z,73.20
2017-11-12T08:23:51.707Z,73.10
2017-11-12T08:26:19.363Z,73.60
2017-11-12T08:28:47.046Z,72.20
2017-11-12T08:31:14.713Z,69.00
2017-11-12T08:33:43.131Z,65.80
2017-11-12T08:36:10.800Z,65.80
2017-11-12T08:38:38.428Z,65.40
2017-11-12T08:41:06.289Z,63.50
2017-11-12T08:43:33.936Z,63.20
2017-11-12T08:46:01.585Z,63.20
2017-11-12T08:48:29.439Z,63.70
2017-11-12T08:50:57.138Z,64.00
2017-11-12T08:53:24.871Z,65.50
2017-11-12T08:55:52.509Z,64.50
2017-11-12T08:58:20.167Z,64.80
2017-11-12T09:00:48.827Z,66.00
2017-11-12T09:03:17.254Z,65.00
2017-11-12T09:05:44.899Z,65.00
2017-11-12T09:08:12.512Z,63.90
2017-11-12T09:10:40.161Z,62.90
2017-11-12T09:13:08.399Z,63.70
2017-11-12T09:15:37.004Z,65.00
2017-11-12T09:18:04.622Z,65.00
2017-11-12T09:20:32.276Z,65.30
2017-11-12T09:22:59.896Z,65.50
2017-11-12T09:25:28.283Z,65.30
2017-11-12T09:27:55.931Z,65.20
2017-11-12T09:30:23.562Z,62.50
2017-11-12T09:32:51.984Z,64.90
2017-11-12T09:35:19.650Z,64.90
2017-11-12T09:37:48.058Z,62.90
2017-11-12T09:40:15.684Z,63.00
2017-11-12T09:42:43.308Z,63.90
2017-11-12T09:45:10.956Z,63.40
2017-11-12T09:47:39.328Z,61.30
2017-11-12T09:50:07.731Z,60.70
2017-11-12T09:52:35.342Z,60.70
2017-11-12T09:55:03.176Z,60.30
2017-11-12T09:57:30.795Z,60.10
2017-11-12T09:59:58.431Z,61.80
2017-11-12T10:02:26.165Z,61.10
2017-11-12T10:04:53.794Z,59.50
2017-11-12T10:07:21.443Z,61.20
2017-11-12T10:09:49.062Z,59.70
2017-11-12T10:12:17.467Z,55.70
2017-11-12T10:14:45.599Z,55.60
2017-11-12T10:17:13.976Z,56.30
2017-11-12T10:19:41.682Z,56.30
2017-11-12T10:22:11.540Z,60.00
2017-11-12T10:24:39.179Z,60.00
2017-11-12T10:27:06.792Z,56.90
2017-11-12T10:29:35.201Z,56.90
2017-11-12T10:32:02.827Z,56.90
2017-11-12T10:34:30.436Z,55.70
2017-11-12T10:36:59.663Z,56.80
2017-11-12T10:39:27.309Z,56.40
2017-11-12T10:41:54.947Z,53.00
2017-11-12T10:44:22.571Z,54.00
2017-11-12T10:46:50.986Z,50.90
2017-11-12T10:49:18.608Z,51.00
2017-11-12T10:51:46.235Z,51.50
2017-11-12T10:54:13.938Z,53.70
2017-11-12T10:56:41.568Z,51.50
2017-11-12T10:59:09.224Z,50.80
2017-11-12T11:01:36.842Z,52.10
2017-11-12T11:04:04.502Z,55.20
2017-11-12T11:06:32.124Z,53.50
2017-11-12T11:08:59.763Z,56.00
2017-11-12T11:11:28.203Z,54.80
2017-11-12T11:13:55.819Z,54.70
2017-11-12T11:16:23.481Z,52.70
2017-11-12T11:18:51.093Z,52.30
2017-11-12T11:21:18.737Z,52.20
2017-11-12T11:23:46.355Z,53.80
2017-11-12T11:26:14.743Z,53.90
2017-11-12T11:28:42.416Z,54.00
2017-11-12T11:31:10.024Z,51.80
2017-11-12T11:33:37.671Z,48.90
2017-11-12T11:36:05.332Z,49.90
2017-11-12T11:38:32.977Z,52.60
2017-11-12T11:41:00.614Z,49.10
2017-11-12T11:43:29.070Z,50.00
2017-11-12T11:45:57.508Z,47.70
2017-11-12T11:48:25.186Z,47.70
2017-11-12T11:50:52.868Z,49.40
2017-11-12T11:53:20.497Z,50.90
2017-11-12T11:55:48.148Z,50.60
2017-11-12T11:58:15.774Z,50.40
2017-11-12T12:00:43.468Z,48.90
2017-11-12T12:03:11.180Z,48.80
2017-11-12T12:05:38.813Z,51.70
2017-11-12T12:08:06.475Z,48.20
2017-11-12T12:10:34.148Z,43.90
2017-11-12T12:13:02.116Z,48.40
2017-11-12T12:15:29.739Z,45.10
2017-11-12T12:17:57.485Z,44.00
2017-11-12T12:20:25.205Z,45.10
2017-11-12T12:22:52.886Z,45.60
2017-11-12T12:25:20.533Z,44.80
2017-11-12T12:27:49.054Z,46.30
2017-11-12T12:30:16.753Z,46.20
2017-11-12T12:32:44.445Z,47.70
2017-11-12T12:35:12.124Z,48.30
2017-11-12T12:40:13.578Z,46.60
2017-11-12T12:42:41.227Z,46.50
2017-11-12T12:45:08.857Z,45.10
2017-11-12T12:47:36.597Z,45.30
2017-11-12T12:50:04.224Z,46.00
2017-11-12T12:52:32.429Z,47.90
2017-11-12T12:55:00.071Z,46.70
2017-11-12T12:57:27.686Z,46.60
2017-11-12T12:59:55.334Z,47.10
2017-11-12T13:02:22.949Z,46.10
2017-11-12T13:04:50.668Z,47.10
2017-11-12T13:07:18.275Z,46.50
2017-11-12T13:09:45.886Z,45.90
2017-11-12T13:12:13.541Z,47.10
2017-11-12T13:14:41.919Z,46.30
2017-11-12T13:17:09.595Z,46.20
2017-11-12T13:19:37.209Z,45.90
2017-11-12T13:22:05.636Z,47.30
2017-11-12T13:24:33.250Z,47.20
2017-11-12T13:27:00.875Z,48.60
2017-11-12T13:29:29.294Z,49.40
2017-11-12T13:31:56.916Z,49.50
2017-11-12T13:34:24.563Z,49.80
2017-11-12T13:36:52.199Z,48.60
2017-11-12T13:39:19.883Z,50.70
2017-11-12T13:41:47.500Z,51.00
2017-11-12T13:44:15.106Z,50.60
2017-11-12T13:46:43.711Z,50.70
2017-11-12T13:49:11.356Z,50.60
2017-11-12T13:51:39.021Z,49.50
2017-11-12T13:54:06.672Z,47.90
2017-11-12T13:56:34.373Z,47.90
2017-11-12T13:59:02.810Z,49.40
2017-11-12T14:01:30.423Z,49.50
2017-11-12T14:03:58.082Z,49.70
2017-11-12T14:06:25.694Z,49.50
2017-11-12T14:08:53.331Z,50.00
2017-11-12T14:11:20.958Z,51.60
2017-11-12T14:13:49.358Z,51.50
2017-11-12T14:16:16.972Z,51.50
2017-11-12T14:18:45.367Z,52.70
2017-11-12T14:21:13.012Z,52.60
2017-11-12T14:23:41.371Z,53.70
2017-11-12T14:26:09.053Z,54.20
2017-11-12T14:28:36.667Z,53.40
2017-11-12T14:31:04.409Z,54.80
2017-11-12T14:33:32.036Z,55.20
2017-11-12T14:36:00.432Z,55.20
2017-11-12T14:38:28.075Z,55.20
2017-11-12T14:40:55.736Z,55.30
2017-11-12T14:43:23.455Z,54.60
2017-11-12T14:45:51.469Z,53.40
2017-11-12T14:48:19.155Z,55.40
2017-11-12T14:50:46.779Z,54.20
2017-11-12T14:53:15.147Z,56.80
2017-11-12T14:55:43.558Z,57.50
2017-11-12T14:58:11.214Z,57.50
2017-11-12T15:00:38.867Z,56.60
2017-11-12T15:03:06.513Z,57.80
2017-11-12T15:05:34.159Z,57.30
2017-11-12T15:08:01.791Z,57.40
2017-11-12T15:10:29.474Z,57.70
2017-11-12T15:12:57.932Z,59.60
2017-11-12T15:15:25.563Z,59.00
2017-11-12T15:17:53.223Z,57.10
2017-11-12T15:20:21.401Z,57.80
2017-11-12T15:22:49.880Z,58.80
2017-11-12T15:25:18.263Z,59.30
2017-11-12T15:27:45.876Z,59.20
2017-11-12T15:30:13.515Z,58.30
2017-11-12T15:32:41.126Z,58.50
2017-11-12T15:35:08.885Z,58.20
2017-11-12T15:37:36.562Z,58.30
2017-11-12T15:40:04.290Z,59.40
2017-11-12T15:42:31.903Z,58.40
2017-11-12T15:44:59.520Z,58.30
2017-11-12T15:47:27.250Z,59.00
2017-11-12T15:49:54.919Z,59.90
2017-11-12T15:52:23.374Z,59.70
2017-11-12T15:54:51.838Z,60.70
2017-11-12T15:57:20.261Z,61.10
2017-11-12T15:59:47.921Z,61.10
2017-11-12T16:02:15.624Z,61.50
2017-11-12T16:04:43.243Z,62.70
2017-11-12T16:07:12.580Z,64.30
2017-11-12T16:09:40.539Z,64.20
2017-11-12T16:12:08.259Z,64.80
2017-11-12T16:14:35.929Z,64.80
2017-11-12T16:17:03.614Z,64.90
2017-11-12T16:19:31.263Z,66.70
2017-11-12T16:21:58.908Z,68.20
2017-11-12T16:24:26.562Z,67.00
2017-11-12T16:26:54.271Z,67.40
2017-11-12T16:29:21.920Z,68.70
2017-11-12T16:31:49.597Z,68.70
2017-11-12T16:34:17.220Z,69.20
2017-11-12T16:36:44.835Z,70.20
2017-11-12T16:39:12.483Z,71.90
2017-11-12T16:41:40.109Z,73.20
2017-11-12T16:44:08.573Z,75.50
2017-11-12T16:46:36.188Z,75.40
2017-11-12T16:49:03.799Z,78.00
2017-11-12T16:51:31.448Z,77.70
2017-11-12T16:53:59.190Z,77.50
2017-11-12T16:56:26.911Z,77.80
2017-11-12T16:58:54.587Z,79.60
2017-11-12T17:01:22.217Z,80.40
2017-11-12T17:03:50.551Z,82.60
2017-11-12T17:06:18.967Z,84.10
2017-11-12T17:08:46.682Z,84.10
2017-11-12T17:11:14.911Z,85.20
2017-11-12T17:13:42.846Z,85.60
2017-11-12T17:16:10.565Z,86.80
2017-11-12T17:18:38.197Z,87.80
2017-11-12T17:21:05.844Z,87.80
2017-11-12T17:23:33.534Z,89.30
2017-11-12T17:26:02.180Z,89.60
2017-11-12T17:28:29.843Z,89.60
2017-11-12T17:30:57.499Z,90.30
2017-11-12T17:33:25.173Z,90.30
2017-11-12T17:35:54.281Z,91.00
2017-11-12T17:38:21.908Z,90.60
2017-11-12T17:40:50.319Z,91.10
2017-11-12T17:43:17.955Z,91.10
2017-11-12T17:45:45.607Z,91.10
2017-11-12T17:48:13.251Z,90.00
2017-11-12T17:50:40.888Z,90.20
2017-11-12T17:53:08.533Z,90.40
2017-11-12T17:55:36.202Z,90.60
2017-11-12T17:58:03.838Z,91.80
2017-11-12T18:00:31.485Z,92.70
2017-11-12T18:02:59.125Z,92.70
2017-11-12T18:05:26.845Z,93.20
2017-11-12T18:07:54.491Z,93.70
2017-11-12T18:10:22.935Z,94.20
2017-11-12T18:12:50.577Z,94.10
2017-11-12T18:15:18.204Z,94.20
2017-11-12T18:17:45.864Z,95.20
2017-11-12T18:20:15.996Z,94.90
2017-11-12T18:22:43.914Z,94.80
2017-11-12T18:25:11.908Z,94.40
2017-11-12T18:27:54.610Z,93.80
2017-11-12T18:30:22.950Z,93.50
2017-11-12T18:32:50.588Z,93.90
2017-11-12T18:35:18.210Z,93.70
2017-11-12T18:37:45.827Z,94.00
2017-11-12T18:40:13.537Z,94.70
2017-11-12T18:42:41.387Z,95.00
2017-11-12T18:45:09.067Z,94.30
2017-11-12T18:47:37.007Z,93.90
2017-11-12T18:50:05.449Z,92.60
2017-11-12T18:52:33.087Z,92.60
2017-11-12T18:55:01.040Z,92.20
2017-11-12T18:57:36.495Z,92.40
2017-11-12T19:00:05.027Z,91.60
2017-11-12T19:02:38.383Z,90.80
2017-11-12T19:05:11.712Z,90.10
2017-11-12T19:07:39.408Z,90.30
2017-11-12T19:10:07.025Z,91.70
2017-11-12T19:12:34.666Z,90.60
2017-11-12T19:15:03.050Z,91.60
2017-11-12T19:17:30.893Z,91.60
2017-11-12T19:20:01.385Z,91.60
2017-11-12T19:22:29.793Z,91.40
2017-11-12T19:24:57.447Z,91.40
2017-11-12T19:27:25.079Z,91.60
2017-11-12T19:30:04.613Z,91.00
2017-11-12T19:32:32.235Z,91.40
2017-11-12T19:34:59.912Z,91.00
2017-11-12T19:37:27.555Z,90.90
2017-11-12T19:39:55.167Z,91.00
2017-11-12T19:42:23.539Z,92.90
2017-11-12T19:44:51.196Z,92.90
2017-11-12T19:47:18.836Z,93.60
2017-11-12T19:49:46.470Z,94.00
2017-11-12T19:52:15.767Z,94.10
2017-11-12T19:54:43.399Z,94.10
2017-11-12T19:57:12.011Z,92.50
2017-11-12T19:59:39.799Z,92.50
2017-11-12T20:02:07.476Z,92.70
2017-11-12T20:04:35.519Z,94.40
2017-11-12T20:07:03.954Z,97.00
2017-11-12T20:09:31.862Z,97.00
2017-11-12T20:11:59.553Z,97.50
2017-11-12T20:14:27.178Z,97.50
2017-11-12T20:16:54.971Z,96.80
2017-11-12T20:19:22.710Z,95.20
2017-11-12T20:21:50.970Z,95.20
2017-11-12T20:24:19.585Z,95.90
2017-11-12T20:26:47.344Z,95.90
2017-11-12T20:29:15.278Z,95.80
2017-11-12T20:31:42.992Z,95.80
2017-11-12T20:34:10.855Z,95.70
2017-11-12T20:36:38.617Z,95.70
2017-11-12T20:39:06.641Z,95.10
2017-11-12T20:41:34.252Z,95.40
2017-11-12T20:44:01.980Z,93.60
2017-11-12T20:46:29.640Z,92.50
2017-11-12T20:48:57.259Z,92.80
2017-11-12T20:51:25.674Z,93.30
2017-11-12T20:53:53.284Z,93.20
2017-11-12T20:56:20.919Z,93.80
2017-11-12T20:58:48.789Z,93.80
2017-11-12T21:01:17.368Z,95.70
2017-11-12T21:03:45.030Z,95.70
2017-11-12T21:06:16.464Z,95.60
2017-11-12T21:08:44.304Z,95.30
2017-11-12T21:11:11.997Z,94.00
2017-11-12T21:13:39.641Z,94.50
2017-11-12T21:16:07.285Z,94.30
2017-11-12T21:18:34.989Z,95.20
2017-11-12T21:21:07.559Z,94.40
2017-11-12T21:23:35.174Z,94.80
2017-11-12T21:26:02.991Z,94.80
2017-11-12T21:28:31.441Z,95.60
2017-11-12T21:30:59.580Z,95.70
2017-11-12T21:33:29.313Z,94.00
2017-11-12T21:36:00.415Z,96.20
2017-11-12T21:38:28.038Z,96.10
2017-11-12T21:40:55.690Z,97.20
2017-11-12T21:43:23.407Z,96.80
2017-11-12T21:45:51.031Z,96.70
2017-11-12T21:48:19.450Z,96.70
2017-11-12T21:50:47.066Z,96.60
2017-11-12T21:53:14.743Z,97.00
2017-11-12T21:55:42.410Z,97.00
2017-11-12T21:58:10.067Z,96.40
2017-11-12T22:00:37.738Z,97.90
2017-11-12T22:03:06.124Z,95.70
2017-11-12T22:05:33.783Z,95.80
2017-11-12T22:08:01.435Z,95.10
2017-11-12T22:10:29.236Z,95.50
2017-11-12T22:12:57.660Z,97.20
2017-11-12T22:15:25.287Z,97.30
2017-11-12T22:17:52.935Z,97.60
2017-11-12T22:20:20.561Z,98.00
2017-11-12T22:22:48.223Z,97.50
2017-11-12T22:25:15.870Z,97.70
2017-11-12T22:27:43.488Z,97.30
2017-11-12T22:30:11.143Z,97.00
2017-11-12T22:32:38.770Z,97.10
2017-11-12T22:35:07.151Z,98.90
2017-11-12T22:37:34.805Z,98.90
2017-11-12T22:40:02.428Z,99.40
2017-11-12T22:42:30.850Z,99.90
2017-11-12T22:44:58.484Z,99.90
2017-11-12T22:47:26.107Z,99.90
2017-11-12T22:49:53.755Z,99.90
2017-11-12T22:52:21.379Z,99.60
2017-11-12T22:54:49.820Z,99.90
2017-11-12T22:57:17.447Z,99.90
2017-11-12T22:59:45.082Z,99.90
2017-11-12T23:02:13.503Z,99.40
2017-11-12T23:04:41.881Z,98.80
2017-11-12T23:07:09.537Z,98.80
2017-11-12T23:09:37.167Z,99.30
2017-11-12T23:12:05.565Z,99.60
2017-11-12T23:14:33.316Z,99.60
2017-11-12T23:17:00.943Z,99.50
2017-11-12T23:19:28.612Z,99.90
2017-11-12T23:21:56.230Z,99.90
2017-11-12T23:24:23.889Z,99.90
2017-11-12T23:26:51.516Z,99.90
2017-11-12T23:29:19.152Z,99.90
2017-11-12T23:31:47.579Z,99.90
2017-11-12T23:34:15.200Z,99.90
2017-11-12T23:36:42.851Z,99.90
2017-11-12T23:39:10.515Z,99.90
2017-11-12T23:41:38.150Z,99.90
2017-11-12T23:44:05.813Z,99.90
2017-11-12T23:46:33.460Z,99.90
2017-11-12T23:49:01.117Z,99.90
2017-11-12T23:51:28.733Z,99.90
2017-11-12T23:53:56.356Z,99.90
2017-11-12T23:56:24.027Z,99.90
2017-11-12T23:58:51.647Z,99.90
